createdAt,value
2018-12-23T00:01:02.273Z,9.87
2018-12-23T00:03:29.928Z,9.83
2018-12-23T00:05:57.591Z,10.23
2018-12-23T00:08:25.257Z,10.27
2018-12-23T00:10:52.922Z,9.50
2018-12-23T00:13:20.589Z,10.90
2018-12-23T00:15:48.201Z,9.43
2018-12-23T00:18:15.812Z,10.37
2018-12-23T00:20:43.467Z,9.87
2018-12-23T00:23:11.105Z,10.50
2018-12-23T00:25:38.791Z,10.20
2018-12-23T00:28:06.461Z,9.97
2018-12-23T00:30:34.135Z,10.30
2018-12-23T00:33:01.788Z,9.73
2018-12-23T00:35:29.457Z,9.97
2018-12-23T00:37:57.114Z,10.07
2018-12-23T00:40:24.889Z,10.60
2018-12-23T00:42:52.541Z,9.43
2018-12-23T00:45:20.212Z,9.47
2018-12-23T00:47:47.805Z,8.93
2018-12-23T00:50:15.524Z,9.63
2018-12-23T00:52:43.177Z,10.40
2018-12-23T00:55:10.862Z,9.57
2018-12-23T00:57:38.525Z,9.23
2018-12-23T01:00:06.968Z,8.80
2018-12-23T01:02:34.665Z,9.43
2018-12-23T01:05:02.330Z,9.00
2018-12-23T01:07:29.990Z,9.30
2018-12-23T01:09:57.656Z,9.87
2018-12-23T01:12:25.310Z,9.03
2018-12-23T01:14:52.912Z,9.00
2018-12-23T01:17:20.736Z,9.67
2018-12-23T01:19:48.399Z,9.53
2018-12-23T01:22:16.074Z,10.30
2018-12-23T01:24:43.660Z,9.87
2018-12-23T01:27:11.292Z,9.73
2018-12-23T01:29:38.958Z,9.77
2018-12-23T01:32:06.621Z,11.37
2018-12-23T01:34:37.170Z,10.10
2018-12-23T01:37:03.993Z,9.53
2018-12-23T01:39:31.906Z,9.73
2018-12-23T01:41:59.564Z,9.70
2018-12-23T01:44:27.183Z,11.10
2018-12-23T01:46:54.805Z,10.10
2018-12-23T01:49:22.397Z,9.40
2018-12-23T01:51:50.074Z,11.23
2018-12-23T01:54:17.738Z,10.80
2018-12-23T01:56:45.396Z,11.30
2018-12-23T01:59:13.051Z,10.03
2018-12-23T02:01:40.665Z,10.17
2018-12-23T02:04:08.280Z,12.87
2018-12-23T02:06:35.904Z,11.17
2018-12-23T02:09:04.823Z,12.27
2018-12-23T02:11:32.504Z,11.53
2018-12-23T02:14:00.166Z,11.37
2018-12-23T02:16:27.820Z,12.43
2018-12-23T02:18:55.483Z,13.30
2018-12-23T02:21:23.120Z,12.17
2018-12-23T02:23:50.767Z,11.80
2018-12-23T02:26:18.357Z,12.07
2018-12-23T02:28:45.964Z,13.57
2018-12-23T02:31:13.587Z,13.97
2018-12-23T02:33:41.255Z,12.07
2018-12-23T02:36:08.920Z,13.07
2018-12-23T02:38:36.580Z,11.60
2018-12-23T02:41:04.244Z,13.10
2018-12-23T02:43:31.846Z,14.03
2018-12-23T02:45:59.464Z,12.43
2018-12-23T02:48:27.131Z,12.53
2018-12-23T02:50:54.792Z,12.60
2018-12-23T02:53:22.455Z,12.40
2018-12-23T02:55:50.116Z,13.93
2018-12-23T02:58:17.775Z,13.13
2018-12-23T03:00:45.439Z,13.90
2018-12-23T03:03:13.047Z,15.07
2018-12-23T03:05:40.634Z,13.57
2018-12-23T03:08:08.238Z,14.13
2018-12-23T03:10:35.824Z,13.30
2018-12-23T03:13:03.433Z,14.40
2018-12-23T03:15:31.023Z,14.47
2018-12-23T03:17:58.630Z,15.23
2018-12-23T03:20:26.233Z,14.10
2018-12-23T03:22:54.507Z,16.93
2018-12-23T03:25:22.172Z,15.67
2018-12-23T03:27:49.836Z,14.93
2018-12-23T03:30:18.316Z,16.10
2018-12-23T03:32:46.492Z,17.53
2018-12-23T03:35:14.234Z,18.10
2018-12-23T03:37:41.967Z,16.67
2018-12-23T03:40:09.690Z,18.07
2018-12-23T03:42:37.351Z,15.90
2018-12-23T03:45:05.024Z,16.80
2018-12-23T03:47:32.676Z,16.10
2018-12-23T03:50:00.430Z,16.60
2018-12-23T03:52:28.022Z,17.83
2018-12-23T03:54:55.665Z,17.73
2018-12-23T03:57:23.322Z,17.57
2018-12-23T03:59:50.989Z,17.93
2018-12-23T04:02:18.571Z,17.60
2018-12-23T04:04:46.213Z,19.20
2018-12-23T04:07:13.873Z,18.97
2018-12-23T04:09:41.484Z,18.90
2018-12-23T04:12:09.067Z,19.53
2018-12-23T04:14:36.763Z,19.93
2018-12-23T04:17:04.391Z,19.80
2018-12-23T04:19:32.090Z,18.37
2018-12-23T04:21:59.748Z,18.87
2018-12-23T04:24:27.412Z,20.33
2018-12-23T04:26:55.047Z,19.33
2018-12-23T04:29:22.735Z,19.03
2018-12-23T04:31:50.399Z,19.93
2018-12-23T04:34:18.064Z,21.30
2018-12-23T04:36:46.344Z,18.70
2018-12-23T04:39:13.948Z,19.23
2018-12-23T04:41:41.566Z,18.33
2018-12-23T04:44:09.235Z,18.57
2018-12-23T04:46:36.887Z,18.40
2018-12-23T04:49:04.523Z,18.90
2018-12-23T04:51:32.221Z,18.67
2018-12-23T04:53:59.875Z,19.20
2018-12-23T04:56:27.546Z,17.90
2018-12-23T04:58:55.206Z,16.73
2018-12-23T05:01:22.871Z,15.00
2018-12-23T05:03:50.527Z,17.00
2018-12-23T05:06:18.193Z,14.23
2018-12-23T05:08:45.855Z,15.60
2018-12-23T05:11:13.520Z,14.67
2018-12-23T05:13:41.178Z,13.97
2018-12-23T05:16:08.845Z,12.43
2018-12-23T05:18:36.589Z,12.40
2018-12-23T05:21:04.370Z,12.43
2018-12-23T05:23:31.959Z,13.70
2018-12-23T05:25:59.601Z,14.00
2018-12-23T05:28:27.772Z,13.17
2018-12-23T05:30:55.437Z,13.47
2018-12-23T05:33:23.081Z,13.03
2018-12-23T05:35:50.692Z,12.40
2018-12-23T05:38:18.324Z,13.30
2018-12-23T05:40:45.983Z,12.97
2018-12-23T05:43:13.652Z,12.57
2018-12-23T05:45:41.307Z,11.83
2018-12-23T05:48:08.971Z,11.77
2018-12-23T05:50:36.575Z,11.90
2018-12-23T05:53:04.175Z,10.97
2018-12-23T05:55:31.351Z,13.17
2018-12-23T05:57:59.011Z,11.67
2018-12-23T06:00:26.621Z,12.53
2018-12-23T06:02:54.238Z,14.07
2018-12-23T06:05:21.847Z,14.70
2018-12-23T06:07:49.447Z,13.20
2018-12-23T06:10:17.059Z,12.97
2018-12-23T06:12:44.683Z,12.90
2018-12-23T06:15:12.956Z,13.27
2018-12-23T06:17:40.620Z,14.73
2018-12-23T06:20:08.383Z,15.13
2018-12-23T06:22:36.048Z,13.23
2018-12-23T06:25:04.026Z,13.40
2018-12-23T06:27:31.678Z,13.57
2018-12-23T06:29:59.264Z,12.10
2018-12-23T06:32:26.904Z,10.10
2018-12-23T06:34:54.564Z,11.33
2018-12-23T06:37:22.227Z,12.23
2018-12-23T06:39:49.892Z,10.37
2018-12-23T06:42:17.553Z,9.60
2018-12-23T06:44:45.215Z,10.03
2018-12-23T06:47:12.824Z,11.00
2018-12-23T06:49:40.412Z,8.63
2018-12-23T06:52:08.104Z,9.23
2018-12-23T06:54:35.762Z,10.43
2018-12-23T06:57:03.427Z,10.73
2018-12-23T06:59:31.007Z,10.10
2018-12-23T07:01:58.611Z,11.07
2018-12-23T07:04:26.211Z,9.60
2018-12-23T07:06:53.875Z,11.43
2018-12-23T07:09:21.539Z,10.70
2018-12-23T07:11:49.199Z,11.87
2018-12-23T07:14:16.866Z,10.07
2018-12-23T07:16:44.529Z,10.47
2018-12-23T07:19:12.151Z,10.47
2018-12-23T07:21:39.847Z,10.57
2018-12-23T07:24:07.515Z,10.70
2018-12-23T07:26:35.177Z,10.70
2018-12-23T07:29:02.844Z,10.77
2018-12-23T07:31:30.503Z,11.30
2018-12-23T07:33:58.163Z,11.40
2018-12-23T07:36:25.830Z,11.57
2018-12-23T07:38:53.589Z,11.53
2018-12-23T07:41:21.259Z,10.93
2018-12-23T07:43:48.920Z,10.30
2018-12-23T07:46:16.584Z,12.20
2018-12-23T07:48:44.167Z,12.07
2018-12-23T07:51:12.011Z,10.27
2018-12-23T07:53:39.596Z,11.77
2018-12-23T07:56:07.240Z,12.27
2018-12-23T07:58:34.896Z,11.70
2018-12-23T08:01:02.766Z,10.47
2018-12-23T08:03:30.429Z,10.23
2018-12-23T08:05:58.091Z,10.07
2018-12-23T08:08:25.855Z,10.73
2018-12-23T08:10:53.520Z,8.87
2018-12-23T08:13:21.135Z,9.00
2018-12-23T08:15:48.715Z,10.47
2018-12-23T08:18:16.318Z,7.90
2018-12-23T08:20:43.969Z,11.00
2018-12-23T08:23:11.727Z,10.10
2018-12-23T08:25:39.399Z,8.20
2018-12-23T08:28:07.055Z,9.50
2018-12-23T08:30:34.639Z,8.23
2018-12-23T08:33:06.476Z,8.10
2018-12-23T08:35:41.616Z,9.03
2018-12-23T08:38:09.275Z,7.80
2018-12-23T08:40:36.864Z,7.40
2018-12-23T08:43:04.468Z,8.17
2018-12-23T08:45:32.048Z,7.57
2018-12-23T08:47:59.730Z,9.77
2018-12-23T08:50:27.313Z,8.77
2018-12-23T08:52:54.947Z,8.23
2018-12-23T08:55:22.607Z,6.37
2018-12-23T08:57:50.211Z,9.10
2018-12-23T09:00:17.831Z,7.87
2018-12-23T09:02:45.495Z,8.90
2018-12-23T09:05:13.159Z,7.90
2018-12-23T09:07:40.819Z,8.40
2018-12-23T09:10:08.484Z,8.90
2018-12-23T09:12:36.071Z,8.40
2018-12-23T09:15:03.808Z,9.47
2018-12-23T09:17:31.475Z,6.43
2018-12-23T09:19:59.135Z,7.80
2018-12-23T09:22:26.798Z,9.20
2018-12-23T09:24:54.464Z,7.37
2018-12-23T09:27:22.127Z,9.27
2018-12-23T09:29:49.787Z,9.93
2018-12-23T09:32:17.447Z,8.70
2018-12-23T09:34:45.111Z,9.30
2018-12-23T09:37:12.776Z,7.97
2018-12-23T09:39:40.434Z,8.13
2018-12-23T09:42:08.103Z,6.93
2018-12-23T09:44:35.764Z,6.33
2018-12-23T09:47:03.432Z,8.77
2018-12-23T09:49:31.087Z,8.13
2018-12-23T09:51:58.751Z,8.37
2018-12-23T09:54:26.358Z,6.57
2018-12-23T09:56:53.976Z,7.90
2018-12-23T09:59:21.635Z,7.43
2018-12-23T10:01:49.220Z,5.43
2018-12-23T10:04:16.863Z,6.33
2018-12-23T10:06:44.446Z,6.47
2018-12-23T10:09:12.084Z,5.30
2018-12-23T10:11:39.748Z,6.37
2018-12-23T10:14:07.411Z,6.20
2018-12-23T10:16:35.075Z,5.40
2018-12-23T10:19:02.740Z,6.03
2018-12-23T10:21:30.400Z,5.83
2018-12-23T10:23:58.003Z,6.30
2018-12-23T10:26:25.718Z,8.17
2018-12-23T10:28:53.388Z,6.77
2018-12-23T10:31:20.971Z,6.17
2018-12-23T10:33:48.611Z,3.50
2018-12-23T10:36:16.375Z,3.53
2018-12-23T10:38:44.035Z,3.70
2018-12-23T10:41:11.699Z,4.60
2018-12-23T10:43:39.364Z,4.20
2018-12-23T10:46:07.027Z,3.90
2018-12-23T10:48:34.607Z,4.13
2018-12-23T10:51:02.258Z,3.53
2018-12-23T10:53:29.840Z,3.43
2018-12-23T10:55:57.444Z,3.00
2018-12-23T10:58:25.025Z,3.30
2018-12-23T11:00:52.701Z,2.80
2018-12-23T11:03:20.284Z,3.00
2018-12-23T11:05:47.959Z,4.27
2018-12-23T11:08:15.679Z,3.57
2018-12-23T11:10:43.349Z,2.90
2018-12-23T11:13:11.016Z,3.40
2018-12-23T11:15:38.677Z,5.30
2018-12-23T11:18:06.337Z,3.77
2018-12-23T11:20:33.999Z,4.20
2018-12-23T11:23:01.654Z,3.97
2018-12-23T11:25:29.259Z,4.10
2018-12-23T11:27:56.839Z,3.60
2018-12-23T11:30:24.431Z,4.07
2018-12-23T11:32:52.003Z,4.40
2018-12-23T11:35:19.692Z,4.00
2018-12-23T11:37:47.332Z,4.30
2018-12-23T11:40:14.995Z,3.57
2018-12-23T11:42:42.656Z,3.90
2018-12-23T11:45:10.249Z,3.33
2018-12-23T11:47:38.282Z,4.10
2018-12-23T11:50:05.947Z,3.47
2018-12-23T11:52:33.523Z,4.20
2018-12-23T11:55:01.175Z,3.27
2018-12-23T11:57:28.842Z,2.80
2018-12-23T11:59:56.444Z,3.10
2018-12-23T12:02:24.060Z,2.70
2018-12-23T12:04:51.718Z,2.83
2018-12-23T12:07:20.128Z,5.20
2018-12-23T12:09:47.711Z,6.33
2018-12-23T12:12:15.426Z,3.80
2018-12-23T12:14:43.095Z,3.63
2018-12-23T12:17:10.711Z,3.70
2018-12-23T12:19:38.283Z,5.50
2018-12-23T12:22:06.823Z,4.07
2018-12-23T12:24:34.400Z,4.57
2018-12-23T12:27:02.031Z,2.93
2018-12-23T12:29:29.605Z,4.13
2018-12-23T12:31:57.204Z,3.17
2018-12-23T12:34:24.807Z,3.17
2018-12-23T12:36:52.467Z,3.73
2018-12-23T12:39:20.043Z,3.70
2018-12-23T12:41:47.648Z,4.10
2018-12-23T12:44:15.351Z,3.67
2018-12-23T12:46:43.020Z,3.50
2018-12-23T12:49:10.680Z,3.80
2018-12-23T12:51:38.491Z,4.80
2018-12-23T12:54:06.075Z,5.60
2018-12-23T12:56:33.771Z,6.77
2018-12-23T12:59:01.427Z,4.50
2018-12-23T13:01:29.100Z,3.27
2018-12-23T13:03:58.876Z,4.30
2018-12-23T13:06:26.476Z,3.27
2018-12-23T13:09:00.505Z,4.00
2018-12-23T13:11:23.739Z,4.50
2018-12-23T13:13:51.320Z,4.60
2018-12-23T13:16:18.971Z,3.90
2018-12-23T13:18:46.635Z,4.13
2018-12-23T13:21:14.283Z,3.13
2018-12-23T13:23:41.955Z,3.60
2018-12-23T13:26:09.551Z,3.10
2018-12-23T13:28:37.129Z,3.10
2018-12-23T13:31:04.728Z,3.60
2018-12-23T13:33:32.399Z,2.90
2018-12-23T13:36:00.003Z,3.40
2018-12-23T13:38:27.623Z,3.63
2018-12-23T13:41:03.686Z,2.23
2018-12-23T13:47:14.986Z,3.10
2018-12-23T13:50:18.553Z,2.93
2018-12-23T13:52:56.536Z,3.73
2018-12-23T13:55:50.986Z,5.87
2018-12-23T13:58:38.034Z,3.57
2018-12-23T14:01:18.911Z,3.23
2018-12-23T14:04:14.208Z,2.77
2018-12-23T14:07:14.771Z,3.83
2018-12-23T14:09:55.088Z,2.23
2018-12-23T14:12:26.394Z,2.20
2018-12-23T14:14:54.939Z,2.87
2018-12-23T14:17:23.638Z,2.37
2018-12-23T14:19:52.181Z,2.10
2018-12-23T14:22:20.748Z,2.47
2018-12-23T14:24:49.355Z,2.40
2018-12-23T14:27:18.000Z,2.20
2018-12-23T14:29:46.709Z,1.83
2018-12-23T14:32:15.272Z,2.07
2018-12-23T14:34:43.809Z,2.13
2018-12-23T14:37:12.416Z,1.93
2018-12-23T14:39:40.980Z,1.90
2018-12-23T14:42:09.531Z,1.77
2018-12-23T14:44:38.106Z,3.67
2018-12-23T14:47:06.654Z,2.83
2018-12-23T14:49:35.231Z,11.00
2018-12-23T14:52:03.766Z,3.20
2018-12-23T14:54:32.331Z,2.13
2018-12-23T14:57:00.877Z,7.40
2018-12-23T14:59:29.469Z,5.40
2018-12-23T15:01:58.002Z,2.20
2018-12-23T15:04:26.568Z,2.20
2018-12-23T15:06:55.120Z,2.53
2018-12-23T15:09:23.677Z,2.30
2018-12-23T15:11:52.284Z,1.97
2018-12-23T15:14:20.855Z,1.67
2018-12-23T15:16:49.394Z,2.10
2018-12-23T15:19:17.962Z,1.90
2018-12-23T15:21:46.498Z,1.80
2018-12-23T15:24:15.062Z,1.93
2018-12-23T15:26:43.603Z,1.53
2018-12-23T15:29:12.173Z,2.13
2018-12-23T15:31:40.712Z,2.50
2018-12-23T15:34:09.279Z,2.53
2018-12-23T15:36:37.819Z,2.97
2018-12-23T15:39:07.056Z,3.20
2018-12-23T15:41:35.631Z,2.77
2018-12-23T15:44:04.160Z,2.40
2018-12-23T15:46:32.696Z,2.23
2018-12-23T15:49:01.264Z,2.57
2018-12-23T15:51:30.377Z,2.07
2018-12-23T15:53:58.945Z,2.03
2018-12-23T15:56:27.567Z,2.10
2018-12-23T15:58:56.134Z,2.20
2018-12-23T16:01:24.680Z,2.27
2018-12-23T16:03:53.263Z,2.87
2018-12-23T16:06:21.805Z,2.90
2018-12-23T16:08:50.342Z,2.90
2018-12-23T16:11:18.962Z,2.17
2018-12-23T16:13:47.508Z,2.57
2018-12-23T16:16:16.074Z,2.90
2018-12-23T16:18:44.671Z,4.00
2018-12-23T16:21:13.239Z,3.13
2018-12-23T16:23:41.781Z,3.10
2018-12-23T16:26:10.346Z,2.50
2018-12-23T16:28:38.883Z,2.30
2018-12-23T16:31:07.448Z,2.47
2018-12-23T16:33:35.987Z,3.10
2018-12-23T16:36:04.553Z,2.60
2018-12-23T16:38:33.091Z,4.27
2018-12-23T16:41:01.659Z,4.07
2018-12-23T16:43:30.203Z,2.40
2018-12-23T16:45:58.763Z,3.00
2018-12-23T16:48:27.304Z,3.40
2018-12-23T16:50:57.941Z,2.76
2018-12-23T16:53:26.484Z,2.47
2018-12-23T16:55:55.052Z,2.60
2018-12-23T16:58:23.590Z,5.00
2018-12-23T17:00:52.163Z,6.83
2018-12-23T17:03:20.703Z,3.13
2018-12-23T17:05:49.269Z,3.90
2018-12-23T17:08:17.810Z,6.30
2018-12-23T17:10:46.373Z,3.30
2018-12-23T17:13:14.915Z,3.50
2018-12-23T17:15:43.485Z,3.80
2018-12-23T17:18:12.128Z,3.47
2018-12-23T17:20:40.695Z,2.80
2018-12-23T17:23:09.236Z,3.80
2018-12-23T17:25:37.798Z,3.30
2018-12-23T17:28:06.334Z,2.97
2018-12-23T17:30:34.871Z,3.40
2018-12-23T17:33:03.439Z,3.07
2018-12-23T17:35:31.996Z,3.77
2018-12-23T17:38:00.548Z,3.53
2018-12-23T17:40:29.086Z,2.90
2018-12-23T17:42:57.666Z,28.03
2018-12-23T17:45:26.277Z,4.30
2018-12-23T17:47:54.847Z,3.47
2018-12-23T17:50:23.393Z,3.20
2018-12-23T17:52:52.041Z,2.60
2018-12-23T17:55:20.584Z,2.87
2018-12-23T17:57:49.152Z,2.80
2018-12-23T18:00:17.693Z,3.03
2018-12-23T18:02:46.259Z,4.20
2018-12-23T18:05:14.805Z,3.83
2018-12-23T18:07:43.375Z,3.13
2018-12-23T18:10:11.912Z,2.33
2018-12-23T18:12:40.561Z,3.30
2018-12-23T18:15:09.189Z,3.00
2018-12-23T18:17:37.758Z,3.10
2018-12-23T18:20:07.167Z,3.10
2018-12-23T18:22:35.741Z,3.47
2018-12-23T18:25:04.356Z,3.60
2018-12-23T18:27:32.929Z,3.40
2018-12-23T18:30:01.465Z,3.03
2018-12-23T18:32:30.029Z,3.63
2018-12-23T18:34:58.567Z,4.00
2018-12-23T18:37:27.135Z,4.00
2018-12-23T18:39:55.670Z,4.33
2018-12-23T18:42:24.207Z,3.80
2018-12-23T18:44:52.766Z,3.73
2018-12-23T18:47:21.309Z,4.60
2018-12-23T18:49:49.871Z,5.00
2018-12-23T18:52:18.410Z,5.23
2018-12-23T18:54:46.970Z,4.63
2018-12-23T18:57:15.873Z,6.23
2018-12-23T18:59:44.443Z,5.10
2018-12-23T19:02:13.319Z,4.63
2018-12-23T19:04:41.883Z,5.07
2018-12-23T19:07:10.425Z,3.90
2018-12-23T19:09:39.668Z,3.23
2018-12-23T19:12:44.750Z,3.53
2018-12-23T19:15:46.874Z,3.23
2018-12-23T19:18:39.640Z,4.60
2018-12-23T19:21:41.905Z,4.70
2018-12-23T19:24:22.471Z,5.17
2018-12-23T19:27:00.136Z,5.70
2018-12-23T19:29:37.433Z,5.87
2018-12-23T19:32:27.335Z,5.63
2018-12-23T19:35:33.623Z,6.00
2018-12-23T19:38:28.242Z,7.00
2018-12-23T19:41:22.793Z,11.63
2018-12-23T19:44:12.588Z,6.80
2018-12-23T19:47:12.823Z,4.67
2018-12-23T19:49:51.090Z,3.30
2018-12-23T19:52:55.651Z,2.80
2018-12-23T19:55:51.774Z,3.20
2018-12-23T19:58:53.942Z,3.70
2018-12-23T20:01:25.686Z,3.50
2018-12-23T20:04:00.208Z,3.93
2018-12-23T20:06:47.241Z,3.17
2018-12-23T20:09:21.736Z,4.37
2018-12-23T20:12:09.989Z,4.20
2018-12-23T20:14:59.455Z,3.23
2018-12-23T20:17:36.684Z,3.30
2018-12-23T20:20:11.098Z,2.83
2018-12-23T20:23:11.707Z,3.30
2018-12-23T20:25:46.155Z,3.00
2018-12-23T20:28:23.694Z,2.70
2018-12-23T20:31:04.468Z,2.07
2018-12-23T20:34:00.714Z,2.57
2018-12-23T20:36:47.451Z,2.70
2018-12-23T20:39:19.193Z,3.50
2018-12-23T20:42:02.963Z,3.00
2018-12-23T20:44:40.626Z,3.77
2018-12-23T20:47:24.140Z,3.67
2018-12-23T20:49:55.857Z,4.00
2018-12-23T20:53:02.603Z,3.63
2018-12-23T20:55:39.937Z,3.53
2018-12-23T20:58:14.623Z,3.50
2018-12-23T21:01:02.765Z,3.23
2018-12-23T21:03:51.285Z,3.60
2018-12-23T21:06:25.944Z,3.13
2018-12-23T21:09:00.673Z,3.90
2018-12-23T21:11:32.409Z,3.57
2018-12-23T21:14:22.256Z,3.90
2018-12-23T21:17:09.274Z,3.77
2018-12-23T21:20:02.220Z,4.20
2018-12-23T21:22:59.719Z,3.53
2018-12-23T21:26:03.512Z,3.20
2018-12-23T21:28:50.262Z,3.27
2018-12-23T21:31:38.801Z,3.60
2018-12-23T21:34:22.375Z,2.90
2018-12-23T21:37:06.331Z,3.07
2018-12-23T21:39:43.823Z,2.40
2018-12-23T21:42:18.091Z,2.90
2018-12-23T21:44:55.639Z,2.87
2018-12-23T21:47:27.459Z,2.40
2018-12-23T21:49:59.175Z,3.00
2018-12-23T21:52:46.208Z,2.70
2018-12-23T21:55:26.888Z,2.80
2018-12-23T21:58:27.531Z,2.20
2018-12-23T22:01:08.370Z,3.33
2018-12-23T22:03:48.531Z,3.20
2018-12-23T22:06:23.209Z,4.90
2018-12-23T22:08:57.633Z,3.67
2018-12-23T22:11:35.228Z,4.40
2018-12-23T22:14:03.791Z,4.10
2018-12-23T22:16:32.332Z,4.77
2018-12-23T22:19:00.929Z,3.47
2018-12-23T22:21:29.453Z,3.00
2018-12-23T22:23:58.017Z,3.30
2018-12-23T22:26:26.556Z,2.90
2018-12-23T22:28:55.129Z,3.00
2018-12-23T22:31:23.672Z,2.90
2018-12-23T22:33:52.304Z,3.70
2018-12-23T22:36:20.847Z,3.53
2018-12-23T22:38:49.414Z,4.13
2018-12-23T22:41:18.331Z,3.87
2018-12-23T22:43:46.922Z,3.87
2018-12-23T22:46:15.479Z,4.33
2018-12-23T22:48:44.019Z,5.07
2018-12-23T22:51:12.585Z,4.50
2018-12-23T22:53:41.125Z,5.20
2018-12-23T22:56:09.687Z,5.60
2018-12-23T22:58:38.230Z,5.83
2018-12-23T23:01:06.967Z,5.43
2018-12-23T23:03:35.578Z,5.90
2018-12-23T23:06:04.143Z,5.87
2018-12-23T23:08:32.689Z,5.00
2018-12-23T23:11:01.255Z,5.70
2018-12-23T23:13:29.795Z,5.43
2018-12-23T23:15:58.360Z,4.63
2018-12-23T23:18:26.893Z,5.23
2018-12-23T23:20:55.454Z,5.23
2018-12-23T23:23:23.991Z,4.10
2018-12-23T23:25:52.557Z,5.13
2018-12-23T23:28:21.103Z,5.33
2018-12-23T23:30:49.691Z,6.20
2018-12-23T23:33:18.229Z,5.77
2018-12-23T23:35:46.760Z,4.90
2018-12-23T23:38:15.327Z,5.73
2018-12-23T23:40:43.867Z,4.43
2018-12-23T23:43:12.431Z,6.10
2018-12-23T23:45:41.044Z,6.83
2018-12-23T23:48:09.610Z,5.23
2018-12-23T23:50:38.146Z,5.30
2018-12-23T23:53:06.716Z,5.47
2018-12-23T23:55:35.252Z,6.67
2018-12-23T23:58:03.815Z,5.83
